createdAt,value
2023-04-15T00:01:53.961Z,6.60
2023-04-15T00:06:57.095Z,6.10
2023-04-15T00:11:59.447Z,6.10
2023-04-15T00:17:03.670Z,5.80
2023-04-15T00:22:05.725Z,7.10
2023-04-15T00:27:09.108Z,6.50
2023-04-15T00:32:11.680Z,5.90
2023-04-15T00:37:15.384Z,7.20
2023-04-15T00:42:18.793Z,7.20
2023-04-15T00:47:22.830Z,6.50
2023-04-15T00:52:26.889Z,6.40
2023-04-15T00:57:28.763Z,7.30
2023-04-15T01:02:32.391Z,7.10
2023-04-15T01:07:35.760Z,6.60
2023-04-15T01:12:39.685Z,5.70
2023-04-15T01:17:44.089Z,7.20
2023-04-15T01:22:46.519Z,5.80
2023-04-15T01:27:48.391Z,6.50
2023-04-15T01:32:51.222Z,7.70
2023-04-15T01:37:59.359Z,6.50
2023-04-15T01:43:03.507Z,7.70
2023-04-15T01:48:06.950Z,7.20
2023-04-15T01:53:09.778Z,7.30
2023-04-15T01:58:13.103Z,6.00
2023-04-15T02:03:16.162Z,7.00
2023-04-15T02:08:19.271Z,6.60
2023-04-15T02:13:22.071Z,6.60
2023-04-15T02:18:26.164Z,6.80
2023-04-15T02:23:31.801Z,7.20
2023-04-15T02:28:34.704Z,6.70
2023-04-15T02:33:37.938Z,6.60
2023-04-15T02:38:42.615Z,7.90
2023-04-15T02:43:47.677Z,7.50
2023-04-15T02:48:54.763Z,7.30
2023-04-15T02:53:58.338Z,8.50
2023-04-15T02:59:00.548Z,7.30
2023-04-15T03:04:04.677Z,7.50
2023-04-15T03:09:07.365Z,6.80
2023-04-15T03:14:09.439Z,7.00
2023-04-15T03:19:12.137Z,7.30
2023-04-15T03:24:16.208Z,7.60
2023-04-15T03:29:18.049Z,7.70
2023-04-15T03:34:20.888Z,7.90
2023-04-15T03:39:24.194Z,9.80
2023-04-15T03:44:28.240Z,8.70
2023-04-15T03:49:31.740Z,6.50
2023-04-15T03:54:34.654Z,7.40
2023-04-15T03:59:36.887Z,6.30
2023-04-15T04:04:39.565Z,8.00
2023-04-15T04:09:45.186Z,6.90
2023-04-15T04:14:50.750Z,6.70
2023-04-15T04:19:53.100Z,7.10
2023-04-15T04:24:56.691Z,7.10
2023-04-15T04:30:00.913Z,6.50
2023-04-15T04:35:04.544Z,6.80
2023-04-15T04:40:10.908Z,6.10
2023-04-15T04:45:13.735Z,6.60
2023-04-15T04:50:17.374Z,6.40
2023-04-15T04:55:19.846Z,6.20
2023-04-15T05:00:23.289Z,6.10
2023-04-15T05:05:27.154Z,5.80
2023-04-15T05:10:29.731Z,7.10
2023-04-15T05:15:34.994Z,6.30
2023-04-15T05:20:37.714Z,6.20
2023-04-15T05:25:41.534Z,6.30
2023-04-15T05:30:44.312Z,6.30
2023-04-15T05:35:48.063Z,6.70
2023-04-15T05:40:50.411Z,5.20
2023-04-15T05:45:54.346Z,7.00
2023-04-15T05:50:57.318Z,6.10
2023-04-15T05:56:01.489Z,7.80
2023-04-15T06:01:04.347Z,5.80
2023-04-15T06:06:10.054Z,6.00
2023-04-15T06:11:14.506Z,6.10
2023-04-15T06:16:17.798Z,4.90
2023-04-15T06:21:23.968Z,5.40
2023-04-15T06:26:28.511Z,6.10
2023-04-15T06:31:31.915Z,5.60
2023-04-15T06:36:34.251Z,4.70
2023-04-15T06:41:40.969Z,4.70
2023-04-15T06:46:44.534Z,4.60
2023-04-15T06:51:47.949Z,5.20
2023-04-15T06:56:51.235Z,5.10
2023-04-15T07:01:54.697Z,5.30
2023-04-15T07:06:57.194Z,6.50
2023-04-15T07:11:59.862Z,5.90
2023-04-15T07:17:02.332Z,5.20
2023-04-15T07:22:04.606Z,5.10
2023-04-15T07:27:07.946Z,4.50
2023-04-15T07:32:11.549Z,4.80
2023-04-15T07:37:16.001Z,5.80
2023-04-15T07:42:20.064Z,4.70
2023-04-15T07:47:23.078Z,5.40
2023-04-15T07:52:24.730Z,7.30
2023-04-15T07:57:27.784Z,5.50
2023-04-15T08:02:30.453Z,6.10
2023-04-15T08:07:33.763Z,8.50
2023-04-15T08:12:36.676Z,6.50
2023-04-15T08:17:38.713Z,7.00
2023-04-15T08:22:41.638Z,6.30
2023-04-15T08:27:46.183Z,8.80
2023-04-15T08:32:51.830Z,7.70
2023-04-15T08:37:54.638Z,5.90
2023-04-15T08:43:00.122Z,6.10
2023-04-15T08:48:06.169Z,5.60
2023-04-15T08:53:11.133Z,5.50
2023-04-15T08:58:15.864Z,6.40
2023-04-15T09:03:19.725Z,6.30
2023-04-15T09:08:24.116Z,8.40
2023-04-15T09:13:26.715Z,8.10
2023-04-15T09:18:34.465Z,8.10
2023-04-15T09:23:40.165Z,8.10
2023-04-15T09:28:46.811Z,8.20
2023-04-15T09:33:56.952Z,7.50
2023-04-15T09:39:01.055Z,9.20
2023-04-15T09:44:04.313Z,9.80
2023-04-15T09:49:11.999Z,8.60
2023-04-15T09:54:22.132Z,8.60
2023-04-15T09:59:25.887Z,7.70
2023-04-15T10:04:32.909Z,8.80
2023-04-15T10:09:38.476Z,7.70
2023-04-15T10:14:44.019Z,9.60
2023-04-15T10:19:48.562Z,8.90
2023-04-15T10:24:52.501Z,8.50
2023-04-15T10:29:58.622Z,8.40
2023-04-15T10:35:02.443Z,9.80
2023-04-15T10:40:27.698Z,8.70
2023-04-15T10:45:39.825Z,8.60
2023-04-15T10:50:58.102Z,11.50
2023-04-15T10:56:02.350Z,10.10
2023-04-15T11:01:05.888Z,8.50
2023-04-15T11:06:09.963Z,7.20
2023-04-15T11:11:16.695Z,7.10
2023-04-15T11:16:20.295Z,8.20
2023-04-15T11:21:27.977Z,7.00
2023-04-15T11:26:32.328Z,5.60
2023-04-15T11:31:37.902Z,5.00
2023-04-15T11:36:44.034Z,2.40
2023-04-15T11:41:47.264Z,1.20
2023-04-15T11:46:51.491Z,1.40
2023-04-15T11:51:55.385Z,1.50
2023-04-15T11:57:00.056Z,1.10
2023-04-15T12:02:13.004Z,1.30
2023-04-15T12:07:17.373Z,1.70
2023-04-15T12:12:20.300Z,1.50
2023-04-15T12:17:25.334Z,1.50
2023-04-15T12:22:28.051Z,2.10
2023-04-15T12:27:31.887Z,0.90
2023-04-15T12:32:37.041Z,1.60
2023-04-15T12:37:39.168Z,1.60
2023-04-15T12:42:41.065Z,1.30
2023-04-15T12:47:43.973Z,1.80
2023-04-15T12:52:47.188Z,1.20
2023-04-15T12:57:49.527Z,1.60
2023-04-15T13:02:51.693Z,1.30
2023-04-15T13:07:54.066Z,1.30
2023-04-15T13:12:56.682Z,2.10
2023-04-15T13:17:59.332Z,2.00
2023-04-15T13:23:17.883Z,1.70
2023-04-15T13:28:20.192Z,1.20
2023-04-15T13:33:23.186Z,1.60
2023-04-15T13:38:25.637Z,1.20
2023-04-15T13:43:28.384Z,0.90
2023-04-15T13:48:30.435Z,1.50
2023-04-15T13:53:37.815Z,2.50
2023-04-15T13:58:41.500Z,1.30
2023-04-15T14:03:44.165Z,2.40
2023-04-15T14:08:46.430Z,3.30
2023-04-15T14:13:49.409Z,1.70
2023-04-15T14:18:52.376Z,1.90
2023-04-15T14:23:54.850Z,1.70
2023-04-15T14:28:56.987Z,1.50
2023-04-15T14:33:59.215Z,1.50
2023-04-15T14:39:04.947Z,1.80
2023-04-15T14:44:11.497Z,1.60
2023-04-15T14:49:14.579Z,3.30
2023-04-15T14:54:17.601Z,3.70
2023-04-15T14:59:19.794Z,3.80
2023-04-15T15:04:22.913Z,2.90
2023-04-15T15:09:26.713Z,2.20
2023-04-15T15:14:31.498Z,2.10
2023-04-15T15:19:34.803Z,2.70
2023-04-15T15:24:38.876Z,3.10
2023-04-15T15:29:43.020Z,3.90
2023-04-15T15:34:46.177Z,3.60
2023-04-15T15:39:53.169Z,1.90
2023-04-15T15:44:56.363Z,3.10
2023-04-15T15:50:02.604Z,2.00
2023-04-15T15:55:07.849Z,1.60
2023-04-15T16:00:12.836Z,4.10
2023-04-15T16:05:15.908Z,1.90
2023-04-15T16:10:18.337Z,3.20
2023-04-15T16:15:20.571Z,3.50
2023-04-15T16:20:24.566Z,2.70
2023-04-15T16:25:26.809Z,5.00
2023-04-15T16:30:29.171Z,6.10
2023-04-15T16:35:32.759Z,6.90
2023-04-15T16:40:37.418Z,9.30
2023-04-15T16:45:40.146Z,8.30
2023-04-15T16:50:46.397Z,9.90
2023-04-15T16:55:49.269Z,9.60
2023-04-15T17:00:52.876Z,10.60
2023-04-15T17:05:55.558Z,8.00
2023-04-15T17:10:57.845Z,10.20
2023-04-15T17:16:01.894Z,9.50
2023-04-15T17:21:06.095Z,11.10
2023-04-15T17:26:08.923Z,12.90
2023-04-15T17:31:11.789Z,11.10
2023-04-15T17:36:15.245Z,10.90
2023-04-15T17:41:18.540Z,10.90
2023-04-15T17:46:23.342Z,11.20
2023-04-15T17:51:26.100Z,10.00
2023-04-15T17:56:29.329Z,9.60
2023-04-15T18:01:31.641Z,9.90
2023-04-15T18:06:35.303Z,9.40
2023-04-15T18:11:40.345Z,11.30
2023-04-15T18:16:43.726Z,10.50
2023-04-15T18:21:49.317Z,9.70
2023-04-15T18:26:52.923Z,12.00
2023-04-15T18:31:58.865Z,14.00
2023-04-15T18:37:01.985Z,12.60
2023-04-15T18:42:04.490Z,13.00
2023-04-15T18:47:07.531Z,13.00
2023-04-15T18:52:11.448Z,10.90
2023-04-15T18:57:13.924Z,11.80
2023-04-15T19:02:27.703Z,11.70
2023-04-15T19:07:31.025Z,12.40
2023-04-15T19:12:33.759Z,12.90
2023-04-15T19:17:35.969Z,14.00
2023-04-15T19:22:38.992Z,14.80
2023-04-15T19:27:41.245Z,15.20
2023-04-15T19:32:43.573Z,12.80
2023-04-15T19:37:48.583Z,10.80
2023-04-15T19:42:51.475Z,7.10
2023-04-15T19:47:54.680Z,5.70
2023-04-15T19:52:57.022Z,3.40
2023-04-15T19:57:59.645Z,2.10
2023-04-15T20:03:01.735Z,1.50
2023-04-15T20:08:04.165Z,1.50
2023-04-15T20:13:06.240Z,2.00
2023-04-15T20:18:08.699Z,1.70
2023-04-15T20:23:11.176Z,2.00
2023-04-15T20:28:15.552Z,1.80
2023-04-15T20:33:17.489Z,2.40
2023-04-15T20:38:21.560Z,1.70
2023-04-15T20:43:27.428Z,1.70
2023-04-15T20:48:31.467Z,1.40
2023-04-15T20:53:35.197Z,1.70
2023-04-15T20:58:39.337Z,3.20
2023-04-15T21:03:42.991Z,2.70
2023-04-15T21:08:46.203Z,2.70
2023-04-15T21:13:51.064Z,2.70
2023-04-15T21:18:54.750Z,3.30
2023-04-15T21:24:00.938Z,3.40
2023-04-15T21:29:03.610Z,4.20
2023-04-15T21:34:07.924Z,3.00
2023-04-15T21:39:12.219Z,2.20
2023-04-15T21:44:15.926Z,3.90
2023-04-15T21:49:20.747Z,5.80
2023-04-15T21:54:24.432Z,7.50
2023-04-15T21:59:28.978Z,4.90
2023-04-15T22:04:32.042Z,3.70
2023-04-15T22:09:35.305Z,4.20
2023-04-15T22:14:39.401Z,4.70
2023-04-15T22:19:42.699Z,4.90
2023-04-15T22:24:45.843Z,5.00
2023-04-15T22:29:48.198Z,5.10
2023-04-15T22:34:51.647Z,6.00
2023-04-15T22:39:56.889Z,5.80
2023-04-15T22:44:59.822Z,5.20
2023-04-15T22:50:04.514Z,4.90
2023-04-15T22:55:09.192Z,4.00
2023-04-15T23:00:12.373Z,4.70
2023-04-15T23:05:15.430Z,5.60
2023-04-15T23:10:19.666Z,6.20
2023-04-15T23:15:24.967Z,5.80
2023-04-15T23:20:28.112Z,5.50
2023-04-15T23:25:30.065Z,6.60
2023-04-15T23:30:37.010Z,5.30
2023-04-15T23:35:39.984Z,6.20
2023-04-15T23:40:43.467Z,5.00
2023-04-15T23:45:46.318Z,6.60
2023-04-15T23:50:50.534Z,5.90
2023-04-15T23:55:54.383Z,5.80
